Time;durP1;ratioP1;P1;durP2;ratioP2;P2;SDS_P1;SDS_P2;PMS_P1;PMS_P2;Temp;Humidity;BMP_temperature;BMP_pressure;BME280_temperature;BME280_humidity;BME280_pressure;Samples;Min_cycle;Max_cycle;Signal;HPM_P1;HPM_P2
2022/11/01 00:01:26;;;;;;;18.20;10.63;;;11.10;99.90;;;;;;5116514;27;20480;-72
2022/11/01 00:03:51;;;;;;;20.05;11.43;;;11.10;99.90;;;;;;5116428;28;20077;-74
2022/11/01 00:06:17;;;;;;;19.73;10.73;;;11.10;99.90;;;;;;5117020;28;20171;-73
2022/11/01 00:08:43;;;;;;;20.92;11.38;;;11.10;99.90;;;;;;5115471;28;20031;-74
2022/11/01 00:11:12;;;;;;;19.42;10.70;;;11.10;99.90;;;;;;5116347;28;20031;-74
2022/11/01 00:13:37;;;;;;;21.85;12.10;;;11.10;99.90;;;;;;5115896;28;20068;-74
2022/11/01 00:16:03;;;;;;;18.67;11.23;;;11.10;99.90;;;;;;5116531;28;20110;-73
2022/11/01 00:18:29;;;;;;;20.23;11.55;;;11.10;99.90;;;;;;5116463;28;20111;-74
2022/11/01 00:20:55;;;;;;;18.05;11.25;;;11.10;99.90;;;;;;5116086;28;20035;-73
2022/11/01 00:23:20;;;;;;;23.73;11.38;;;11.10;99.90;;;;;;5116447;28;20028;-73
2022/11/01 00:25:46;;;;;;;18.83;11.60;;;11.10;99.90;;;;;;5115688;28;20395;-73
2022/11/01 00:28:12;;;;;;;19.13;11.82;;;11.10;99.90;;;;;;5116350;28;20027;-73
2022/11/01 00:30:39;;;;;;;19.67;11.50;;;11.10;99.90;;;;;;5115662;27;20080;-74
2022/11/01 00:33:05;;;;;;;16.17;10.70;;;11.10;99.90;;;;;;5117329;28;20079;-73
2022/11/01 00:35:32;;;;;;;17.25;11.55;;;11.10;99.90;;;;;;5116053;28;20390;-74
2022/11/01 00:37:58;;;;;;;18.67;11.23;;;11.10;99.90;;;;;;5116180;28;20084;-74
2022/11/01 00:40:25;;;;;;;18.15;12.15;;;11.10;99.90;;;;;;5115846;28;20024;-73
2022/11/01 00:42:50;;;;;;;19.13;11.27;;;11.10;99.90;;;;;;5115998;28;20024;-74
2022/11/01 00:45:16;;;;;;;19.75;11.13;;;11.10;99.90;;;;;;5115854;28;20023;-73
2022/11/01 00:47:42;;;;;;;18.35;11.45;;;11.10;99.90;;;;;;5115308;28;20039;-74
2022/11/01 00:50:08;;;;;;;16.92;10.77;;;11.10;99.90;;;;;;5115873;28;20028;-74
2022/11/01 00:52:33;;;;;;;18.08;11.25;;;11.10;99.90;;;;;;5115921;28;20031;-84
2022/11/01 00:54:59;;;;;;;16.58;11.20;;;11.10;99.90;;;;;;5115988;28;20047;-74
2022/11/01 00:57:25;;;;;;;19.65;11.60;;;11.10;99.90;;;;;;5115358;28;20031;-73
2022/11/01 00:59:50;;;;;;;17.63;10.52;;;11.00;99.90;;;;;;5115297;28;20457;-73
2022/11/01 01:02:16;;;;;;;16.80;10.50;;;11.00;99.90;;;;;;5115439;28;20024;-73
2022/11/01 01:04:42;;;;;;;16.92;10.52;;;11.00;99.90;;;;;;5115166;28;20024;-73
2022/11/01 01:07:09;;;;;;;16.35;10.52;;;10.90;99.90;;;;;;5115477;27;20034;-73
2022/11/01 01:09:35;;;;;;;17.77;10.40;;;10.90;99.90;;;;;;5115498;28;20475;-73
2022/11/01 01:12:01;;;;;;;16.73;10.82;;;10.90;99.90;;;;;;5115513;28;20030;-72
2022/11/01 01:14:27;;;;;;;16.85;10.82;;;10.90;99.90;;;;;;5115432;28;20371;-75
2022/11/01 01:16:53;;;;;;;15.88;10.32;;;10.80;99.90;;;;;;5114604;27;20031;-72
2022/11/01 01:19:18;;;;;;;17.98;10.20;;;10.80;99.90;;;;;;5115365;28;20054;-73
2022/11/01 01:21:44;;;;;;;20.95;10.88;;;10.80;99.90;;;;;;5114687;27;20027;-73
2022/11/01 01:24:10;;;;;;;19.30;11.27;;;10.80;99.90;;;;;;5115559;28;20464;-73
2022/11/01 01:26:35;;;;;;;16.42;10.40;;;10.80;99.90;;;;;;5115223;28;20378;-73
2022/11/01 01:29:01;;;;;;;17.50;10.68;;;10.80;99.90;;;;;;5114680;28;20068;-73
2022/11/01 01:31:26;;;;;;;19.05;11.23;;;10.80;99.90;;;;;;5115305;28;20103;-73
2022/11/01 01:33:52;;;;;;;17.83;10.30;;;10.80;99.90;;;;;;5114711;28;20082;-73
2022/11/01 01:36:18;;;;;;;16.70;10.55;;;10.80;99.90;;;;;;5114740;28;20023;-73
2022/11/01 01:38:43;;;;;;;21.52;11.13;;;10.80;99.90;;;;;;5114413;28;20035;-73
2022/11/01 01:43:53;;;;;;;18.80;10.85;;;10.80;99.90;;;;;;5114209;28;20555;-73
2022/11/01 01:46:20;;;;;;;18.13;11.23;;;10.80;99.90;;;;;;5114080;28;20102;-73
2022/11/01 01:48:50;;;;;;;20.27;11.18;;;10.80;99.90;;;;;;5114414;28;20036;-74
2022/11/01 01:51:19;;;;;;;19.30;11.40;;;10.80;99.90;;;;;;5115110;28;20024;-73
2022/11/01 01:53:51;;;;;;;17.90;11.02;;;10.80;99.90;;;;;;5114195;28;20020;-74
2022/11/01 01:56:30;;;;;;;16.13;11.35;;;10.80;99.90;;;;;;5113828;28;20460;-73
2022/11/01 01:59:03;;;;;;;18.95;10.52;;;10.70;99.90;;;;;;5114138;28;20059;-73
2022/11/01 02:01:29;;;;;;;17.75;10.98;;;10.80;99.90;;;;;;5114438;27;20069;-73
2022/11/01 02:03:55;;;;;;;18.73;11.00;;;10.80;99.90;;;;;;5114026;28;20057;-73
2022/11/01 02:06:22;;;;;;;19.27;11.88;;;10.80;99.90;;;;;;5114116;28;20051;-73
2022/11/01 02:09:00;;;;;;;18.00;11.95;;;10.80;99.90;;;;;;5114004;28;20459;-73
2022/11/01 02:11:26;;;;;;;19.40;11.48;;;10.80;99.90;;;;;;5114195;28;20024;-73
2022/11/01 02:13:51;;;;;;;18.30;10.95;;;10.80;99.90;;;;;;5113878;28;20028;-73
2022/11/01 02:16:32;;;;;;;17.05;11.52;;;10.80;99.90;;;;;;5114268;28;20076;-73
2022/11/01 02:19:19;;;;;;;20.65;11.40;;;10.80;99.90;;;;;;5113254;28;20030;-73
2022/11/01 02:21:50;;;;;;;20.38;10.75;;;10.80;99.90;;;;;;5114103;28;20102;-73
2022/11/01 02:24:38;;;;;;;;;;;10.80;99.90;;;;;;5114602;28;20023;-72
2022/11/01 02:27:13;;;;;;;21.65;11.95;;;10.80;99.90;;;;;;5113691;28;20002;-72
2022/11/01 02:29:54;;;;;;;18.75;12.13;;;10.80;99.90;;;;;;5113966;28;20031;-72
2022/11/01 02:32:52;;;;;;;20.27;12.30;;;10.80;99.90;;;;;;5114133;28;20024;-73
2022/11/01 02:35:36;;;;;;;20.95;12.00;;;10.80;99.90;;;;;;5087533;28;20048;-73
2022/11/01 02:38:24;;;;;;;18.52;11.70;;;10.80;99.90;;;;;;5113088;28;20380;-73
2022/11/01 02:41:00;;;;;;;17.92;11.57;;;10.80;99.90;;;;;;5113379;28;20114;-73
2022/11/01 02:43:39;;;;;;;18.20;11.57;;;10.90;99.90;;;;;;5113854;28;20035;-72
2022/11/01 02:48:53;;;;;;;16.67;10.88;;;10.90;99.90;;;;;;5113286;28;20490;-72
2022/11/01 02:51:21;;;;;;;16.77;11.40;;;10.90;99.90;;;;;;5113590;28;20376;-73
2022/11/01 02:53:47;;;;;;;15.95;11.27;;;10.90;99.90;;;;;;5122573;27;20026;-73
2022/11/01 02:56:16;;;;;;;19.00;11.07;;;10.90;99.90;;;;;;5133822;27;20383;-72
2022/11/01 02:58:43;;;;;;;15.75;10.63;;;10.90;99.90;;;;;;5134007;27;20129;-73
2022/11/01 03:01:15;;;;;;;19.25;11.32;;;10.90;99.90;;;;;;5134040;27;20084;-72
2022/11/01 03:03:44;;;;;;;16.75;11.07;;;10.90;99.90;;;;;;5133901;27;20030;-73
2022/11/01 03:06:29;;;;;;;18.45;11.38;;;10.90;99.90;;;;;;5134101;27;20030;-73
2022/11/01 03:08:58;;;;;;;16.05;10.38;;;10.90;99.90;;;;;;5132439;27;20055;-73
2022/11/01 03:11:51;;;;;;;17.48;10.88;;;11.00;99.90;;;;;;5133907;27;20026;-73
2022/11/01 03:15:02;;;;;;;16.27;10.70;;;10.90;99.90;;;;;;5133642;27;20023;-72
2022/11/01 03:17:40;;;;;;;21.90;10.77;;;11.00;99.90;;;;;;5129423;27;20460;-72
2022/11/01 03:20:09;;;;;;;14.95;10.73;;;10.90;99.90;;;;;;5133155;27;20974;-73
2022/11/01 03:22:48;;;;;;;18.70;11.60;;;10.90;99.90;;;;;;5133594;27;20514;-74
2022/11/01 03:25:38;;;;;;;24.63;10.77;;;11.00;99.90;;;;;;5133656;27;20080;-74
2022/11/01 03:28:12;;;;;;;15.98;11.10;;;11.00;99.90;;;;;;5133206;27;20035;-74
2022/11/01 03:30:43;;;;;;;17.77;10.80;;;11.00;99.90;;;;;;5133770;27;20031;-74
2022/11/01 03:33:11;;;;;;;17.15;10.88;;;11.00;99.90;;;;;;5133204;27;20111;-73
2022/11/01 03:35:39;;;;;;;19.27;11.90;;;11.00;99.90;;;;;;5133735;27;20023;-73
2022/11/01 03:38:09;;;;;;;17.27;10.40;;;11.00;99.90;;;;;;5133226;27;20031;-74
2022/11/01 03:40:40;;;;;;;18.77;11.25;;;11.10;99.90;;;;;;5133804;27;20467;-74
2022/11/01 03:43:10;;;;;;;17.33;11.70;;;11.00;99.90;;;;;;5127116;27;20019;-74
2022/11/01 03:45:39;;;;;;;23.80;11.47;;;11.00;99.90;;;;;;5113127;28;20028;-74
2022/11/01 03:48:05;;;;;;;21.67;12.40;;;11.10;99.90;;;;;;5112531;28;20046;-73
2022/11/01 03:50:32;;;;;;;22.33;12.25;;;11.10;99.90;;;;;;5112977;28;20015;-73
2022/11/01 03:52:58;;;;;;;19.75;11.60;;;11.10;99.90;;;;;;5112482;28;20038;-73
2022/11/01 03:55:24;;;;;;;20.67;12.45;;;11.10;99.90;;;;;;5112580;28;20024;-73
2022/11/01 03:57:56;;;;;;;23.60;12.15;;;11.10;99.90;;;;;;5111975;28;20061;-75
2022/11/01 04:00:21;;;;;;;;;;;11.10;99.90;;;;;;5113288;28;20035;-74
2022/11/01 04:02:52;;;;;;;16.52;11.18;;;11.10;99.90;;;;;;5112976;28;19995;-72
2022/11/01 04:05:20;;;;;;;23.38;12.93;;;11.10;99.90;;;;;;5114800;28;20020;-72
2022/11/01 04:07:47;;;;;;;21.70;11.90;;;11.10;99.90;;;;;;5133364;27;20563;-73
2022/11/01 04:10:13;;;;;;;17.67;11.45;;;11.10;99.90;;;;;;5132927;27;20441;-73
2022/11/01 04:12:39;;;;;;;22.77;12.15;;;11.10;99.90;;;;;;5113140;28;20036;-72
2022/11/01 04:20:52;;;;;;;17.77;10.85;;;11.10;99.90;;;;;;5116249;28;20078;-72
2022/11/01 04:23:17;;;;;;;19.77;10.88;;;11.10;99.90;;;;;;5116319;28;20142;-72
2022/11/01 04:25:45;;;;;;;20.45;11.63;;;11.10;99.90;;;;;;5116607;28;20031;-73
2022/11/01 04:28:12;;;;;;;21.35;12.18;;;11.10;99.90;;;;;;5115849;28;20041;-73
2022/11/01 04:30:37;;;;;;;18.33;11.15;;;11.10;99.90;;;;;;5116310;28;20024;-73
2022/11/01 04:33:03;;;;;;;15.38;10.60;;;11.10;99.90;;;;;;5115710;28;20433;-74
2022/11/01 04:35:29;;;;;;;15.43;10.75;;;11.20;99.90;;;;;;5115983;28;20452;-73
2022/11/01 04:37:56;;;;;;;18.40;11.35;;;11.20;99.90;;;;;;5114574;28;20478;-74
2022/11/01 04:40:22;;;;;;;17.00;10.55;;;11.10;99.90;;;;;;5116104;28;20066;-73
2022/11/01 04:42:47;;;;;;;17.60;10.27;;;11.20;99.90;;;;;;5116099;28;20051;-73
2022/11/01 04:45:13;;;;;;;19.65;11.88;;;11.20;99.90;;;;;;5115592;28;20656;-73
2022/11/01 04:47:39;;;;;;;16.73;10.77;;;11.20;99.90;;;;;;5115643;28;20076;-72
2022/11/01 04:50:05;;;;;;;17.38;10.60;;;11.10;99.90;;;;;;5115612;28;20135;-73
2022/11/01 04:52:30;;;;;;;17.08;9.90;;;11.20;99.90;;;;;;5115854;28;20190;-72
2022/11/01 04:54:56;;;;;;;16.27;10.73;;;11.20;99.90;;;;;;5114976;28;20034;-74
2022/11/01 04:57:22;;;;;;;18.38;10.57;;;11.20;99.90;;;;;;5115672;28;20084;-72
2022/11/01 04:59:52;;;;;;;17.70;11.20;;;11.10;99.90;;;;;;5115730;28;20111;-74
2022/11/01 05:02:22;;;;;;;17.95;11.65;;;11.20;99.90;;;;;;5115296;28;20050;-73
2022/11/01 05:04:48;;;;;;;21.80;11.50;;;11.10;99.90;;;;;;5115727;28;20046;-73
2022/11/01 05:07:14;;;;;;;14.70;10.35;;;11.20;99.90;;;;;;5114948;28;20472;-73
2022/11/01 05:09:40;;;;;;;18.30;11.25;;;11.10;99.90;;;;;;5115528;28;20059;-73
2022/11/01 05:12:06;;;;;;;17.52;11.35;;;11.20;99.90;;;;;;5115064;28;20020;-72
2022/11/01 05:14:32;;;;;;;20.42;11.05;;;11.10;99.90;;;;;;5115465;28;20031;-73
2022/11/01 05:16:58;;;;;;;18.00;10.38;;;11.20;99.90;;;;;;5114631;28;20027;-73
2022/11/01 05:19:24;;;;;;;18.58;11.45;;;11.20;99.90;;;;;;5116951;28;20039;-73
2022/11/01 05:21:50;;;;;;;16.27;10.63;;;11.20;99.90;;;;;;5115240;28;20115;-73
2022/11/01 05:24:17;;;;;;;17.60;11.52;;;11.20;99.90;;;;;;5115099;28;20431;-73
2022/11/01 05:26:43;;;;;;;17.83;11.73;;;11.20;99.90;;;;;;5115063;27;20478;-73
2022/11/01 05:29:09;;;;;;;22.95;12.43;;;11.20;99.90;;;;;;5114682;28;20455;-72
2022/11/01 05:31:35;;;;;;;22.20;12.20;;;11.20;99.90;;;;;;5114431;27;20089;-72
2022/11/01 05:34:01;;;;;;;21.23;12.68;;;11.20;99.90;;;;;;5114208;28;20119;-73
2022/11/01 05:36:27;;;;;;;19.35;13.32;;;11.20;99.90;;;;;;5114326;28;20118;-72
2022/11/01 05:38:59;;;;;;;20.35;12.15;;;11.20;99.90;;;;;;5114830;28;20127;-73
2022/11/01 05:41:25;;;;;;;19.10;12.63;;;11.20;99.90;;;;;;5115112;28;20119;-72
2022/11/01 05:43:50;;;;;;;23.65;13.20;;;11.20;99.90;;;;;;5114560;28;20063;-73
2022/11/01 05:46:16;;;;;;;33.50;13.52;;;11.30;99.90;;;;;;5114397;28;20051;-72
2022/11/01 05:48:42;;;;;;;20.98;12.90;;;11.30;99.90;;;;;;5114719;28;20024;-72
2022/11/01 05:51:09;;;;;;;20.50;13.02;;;11.30;99.90;;;;;;5114349;28;20372;-73
2022/11/01 05:53:35;;;;;;;24.77;12.75;;;11.30;99.90;;;;;;5114727;28;20062;-73
2022/11/01 05:56:01;;;;;;;23.35;12.95;;;11.30;99.90;;;;;;5113953;28;20046;-74
2022/11/01 05:58:27;;;;;;;21.10;13.02;;;11.30;99.90;;;;;;5114660;28;20043;-73
2022/11/01 06:01:01;;;;;;;21.30;12.10;;;11.30;99.90;;;;;;5114593;28;20491;-73
2022/11/01 06:03:27;;;;;;;23.23;13.50;;;11.30;99.90;;;;;;5114492;28;20100;-73
2022/11/01 06:05:52;;;;;;;23.95;12.80;;;11.30;99.90;;;;;;5114455;28;20031;-72
2022/11/01 06:08:18;;;;;;;22.10;13.68;;;11.30;99.90;;;;;;5112241;28;20027;-73
2022/11/01 06:10:44;;;;;;;24.50;13.80;;;11.40;99.90;;;;;;5113853;28;20080;-73
2022/11/01 06:13:10;;;;;;;22.27;13.93;;;11.40;99.90;;;;;;5113953;28;20391;-74
2022/11/01 06:15:36;;;;;;;25.00;13.52;;;11.40;99.90;;;;;;5114482;28;20428;-73
2022/11/01 06:18:02;;;;;;;21.17;12.88;;;11.40;99.90;;;;;;5113980;28;20027;-80
2022/11/01 06:20:29;;;;;;;23.13;13.70;;;11.40;99.90;;;;;;5114102;28;20050;-73
2022/11/01 06:22:55;;;;;;;21.10;13.18;;;11.40;99.90;;;;;;5114085;28;20031;-73
2022/11/01 06:25:21;;;;;;;22.83;14.32;;;11.40;99.90;;;;;;5113086;28;20509;-73
2022/11/01 06:27:47;;;;;;;21.48;14.18;;;11.40;99.90;;;;;;5114299;28;20036;-75
2022/11/01 06:30:13;;;;;;;21.88;13.98;;;11.40;99.90;;;;;;5113611;28;20030;-72
2022/11/01 06:32:39;;;;;;;23.35;13.23;;;11.40;99.90;;;;;;5114050;28;20074;-72
2022/11/01 06:35:05;;;;;;;24.67;13.77;;;11.40;99.90;;;;;;5113533;28;20116;-74
2022/11/01 06:37:31;;;;;;;21.27;13.15;;;11.40;99.90;;;;;;5131842;27;20056;-74
2022/11/01 06:39:56;;;;;;;22.88;12.75;;;11.40;99.90;;;;;;5134685;27;20031;-74
2022/11/01 06:42:22;;;;;;;19.23;13.02;;;11.40;99.90;;;;;;5133846;27;20460;-74
2022/11/01 06:44:48;;;;;;;20.30;12.07;;;11.50;99.90;;;;;;5134350;27;20371;-74
2022/11/01 06:47:13;;;;;;;17.60;12.18;;;11.50;99.90;;;;;;5133769;27;20027;-74
2022/11/01 06:49:39;;;;;;;20.00;12.07;;;11.40;99.90;;;;;;5133926;27;20027;-73
2022/11/01 06:52:05;;;;;;;23.25;13.80;;;11.50;99.90;;;;;;5133759;27;20026;-76
2022/11/01 06:54:31;;;;;;;16.90;11.93;;;11.50;99.90;;;;;;5134326;27;20019;-73
2022/11/01 06:56:57;;;;;;;20.33;12.20;;;11.50;99.90;;;;;;5133901;27;20448;-73
2022/11/01 06:59:23;;;;;;;21.45;13.23;;;11.50;99.90;;;;;;5132353;27;20038;-73
2022/11/01 07:01:50;;;;;;;22.98;12.85;;;11.50;99.90;;;;;;5134300;27;20031;-73
2022/11/01 07:04:17;;;;;;;20.98;12.70;;;11.50;99.90;;;;;;5133748;27;20031;-73
2022/11/01 07:06:43;;;;;;;24.67;14.07;;;11.50;99.90;;;;;;5129423;27;20023;-73
2022/11/01 07:09:09;;;;;;;21.17;13.40;;;11.50;99.90;;;;;;5113649;28;20068;-73
2022/11/01 07:11:35;;;;;;;20.52;12.48;;;11.50;99.90;;;;;;5113613;28;20019;-73
2022/11/01 07:14:01;;;;;;;25.42;14.07;;;11.50;99.90;;;;;;5112972;28;20361;-73
2022/11/01 07:16:27;;;;;;;20.65;13.40;;;11.50;99.90;;;;;;5112489;28;20036;-73
2022/11/01 07:18:52;;;;;;;23.70;13.32;;;11.50;99.90;;;;;;5123528;28;20027;-73
2022/11/01 07:21:18;;;;;;;21.23;12.68;;;11.50;99.90;;;;;;5132345;28;20147;-73
2022/11/01 07:23:44;;;;;;;27.75;14.38;;;11.50;99.90;;;;;;5111081;28;20019;-73
2022/11/01 07:26:09;;;;;;;25.20;13.27;;;11.50;99.90;;;;;;5112900;28;20164;-73
2022/11/01 07:28:36;;;;;;;25.38;13.48;;;11.50;99.90;;;;;;5113130;28;20030;-72
2022/11/01 07:31:02;;;;;;;21.40;13.18;;;11.50;99.90;;;;;;5112659;28;20043;-72
2022/11/01 07:33:27;;;;;;;22.13;13.38;;;11.60;99.90;;;;;;5112507;28;20918;-73
2022/11/01 07:35:53;;;;;;;23.73;14.38;;;11.60;99.90;;;;;;5112962;28;20035;-72
2022/11/01 07:38:19;;;;;;;22.52;14.70;;;11.60;99.90;;;;;;5112500;28;20030;-74
2022/11/01 07:40:48;;;;;;;25.45;13.88;;;11.60;99.90;;;;;;5112976;28;20413;-74
2022/11/01 07:43:15;;;;;;;23.95;13.88;;;11.60;99.90;;;;;;5110980;28;20063;-74
2022/11/01 07:45:41;;;;;;;21.67;13.48;;;11.60;99.90;;;;;;5112633;28;20391;-74
2022/11/01 07:48:11;;;;;;;26.27;15.52;;;11.60;99.90;;;;;;5113018;28;20042;-73
2022/11/01 07:50:37;;;;;;;21.40;13.57;;;11.60;99.90;;;;;;5113046;28;20073;-73
2022/11/01 07:53:12;;;;;;;20.60;12.93;;;11.70;99.90;;;;;;5112207;28;20042;-74
2022/11/01 07:55:38;;;;;;;24.20;14.38;;;11.70;99.90;;;;;;5116178;28;20035;-73
2022/11/01 07:58:05;;;;;;;27.17;14.48;;;11.70;99.90;;;;;;5116495;28;20028;-74
2022/11/01 08:00:31;;;;;;;20.35;13.65;;;11.70;99.90;;;;;;5116201;28;20118;-76
2022/11/01 08:03:11;;;;;;;21.80;13.50;;;11.70;99.90;;;;;;5116527;28;20442;-74
2022/11/01 08:05:37;;;;;;;23.58;13.43;;;11.70;99.90;;;;;;5118778;28;20106;-75
2022/11/01 08:08:04;;;;;;;22.50;13.75;;;11.70;99.90;;;;;;5120403;28;20108;-74
2022/11/01 08:10:31;;;;;;;26.48;13.60;;;11.70;99.90;;;;;;5117942;28;20451;-74
2022/11/01 08:13:04;;;;;;;26.30;13.82;;;11.70;99.90;;;;;;5118140;28;20041;-74
2022/11/01 08:15:30;;;;;;;22.15;13.65;;;11.70;99.90;;;;;;5116848;28;20027;-74
2022/11/01 08:17:57;;;;;;;25.67;13.77;;;11.70;99.90;;;;;;5116609;28;20208;-74
2022/11/01 08:20:24;;;;;;;20.88;13.57;;;11.70;99.90;;;;;;5118496;28;20027;-74
2022/11/01 08:22:50;;;;;;;23.23;13.50;;;11.70;99.90;;;;;;5116768;28;20472;-74
2022/11/01 08:25:17;;;;;;;22.77;14.07;;;11.80;99.90;;;;;;5115986;28;20203;-74
2022/11/01 08:27:43;;;;;;;22.70;13.20;;;11.80;99.90;;;;;;5116361;27;20100;-74
2022/11/01 08:30:09;;;;;;;21.00;13.20;;;11.80;99.90;;;;;;5116331;28;20440;-73
2022/11/01 08:32:35;;;;;;;25.27;13.18;;;11.80;99.90;;;;;;5115753;28;20521;-73
2022/11/01 08:35:01;;;;;;;28.13;14.88;;;11.80;99.90;;;;;;5116318;28;20047;-72
2022/11/01 08:37:26;;;;;;;24.55;13.55;;;11.80;99.90;;;;;;5115633;28;20032;-73
2022/11/01 08:39:52;;;;;;;21.58;13.18;;;11.80;99.90;;;;;;5116306;28;20024;-73
2022/11/01 08:42:18;;;;;;;21.98;13.48;;;11.80;99.90;;;;;;5115718;28;20034;-75
2022/11/01 08:44:44;;;;;;;23.02;13.02;;;11.90;99.90;;;;;;5115965;28;20022;-74
2022/11/01 08:47:10;;;;;;;23.35;13.85;;;11.80;99.90;;;;;;5116006;28;20110;-74
2022/11/01 08:49:36;;;;;;;24.50;13.18;;;11.80;99.90;;;;;;5115563;28;20024;-73
2022/11/01 08:52:02;;;;;;;20.45;12.55;;;11.80;99.90;;;;;;5116074;28;20027;-74
2022/11/01 08:54:27;;;;;;;26.00;13.82;;;11.80;99.90;;;;;;5115110;28;20034;-73
2022/11/01 08:56:53;;;;;;;23.88;14.43;;;11.90;99.90;;;;;;5115414;28;20024;-73
2022/11/01 08:59:19;;;;;;;24.33;15.80;;;11.90;99.90;;;;;;5115407;28;20088;-73
2022/11/01 09:01:44;;;;;;;22.80;13.45;;;11.90;99.90;;;;;;5115757;27;20112;-72
2022/11/01 09:04:11;;;;;;;23.83;13.57;;;11.90;99.90;;;;;;5115102;28;20038;-73
2022/11/01 09:06:37;;;;;;;22.60;13.02;;;11.90;99.90;;;;;;5114890;28;20073;-74
2022/11/01 09:09:03;;;;;;;19.38;12.15;;;11.90;99.90;;;;;;5115477;28;20456;-73
2022/11/01 09:11:29;;;;;;;20.35;12.45;;;11.90;99.90;;;;;;5114905;28;20024;-73
2022/11/01 09:13:56;;;;;;;22.90;13.60;;;11.90;99.90;;;;;;5115416;28;20406;-73
2022/11/01 09:16:22;;;;;;;21.25;13.07;;;11.90;99.90;;;;;;5115229;28;20024;-75
2022/11/01 09:18:48;;;;;;;25.90;13.57;;;11.90;99.90;;;;;;5115116;28;20101;-75
2022/11/01 09:21:14;;;;;;;21.80;12.77;;;12.00;99.90;;;;;;5115301;28;20031;-74
2022/11/01 09:23:40;;;;;;;20.73;12.93;;;12.00;99.90;;;;;;5114848;28;20052;-73
2022/11/01 09:26:08;;;;;;;18.52;12.43;;;12.00;99.90;;;;;;5115273;28;20082;-74
2022/11/01 09:28:34;;;;;;;22.80;13.07;;;12.00;99.90;;;;;;5114752;28;20410;-74
2022/11/01 09:31:09;;;;;;;21.13;12.45;;;12.00;99.90;;;;;;5115241;28;20069;-73
2022/11/01 09:33:35;;;;;;;24.95;13.40;;;12.00;99.90;;;;;;5114630;28;20118;-72
2022/11/01 09:36:01;;;;;;;21.95;13.43;;;12.00;99.90;;;;;;5115146;28;20051;-74
2022/11/01 09:38:27;;;;;;;25.27;13.43;;;12.10;99.90;;;;;;5114289;28;20074;-74
2022/11/01 09:40:58;;;;;;;19.63;13.40;;;12.10;99.90;;;;;;5115144;28;20027;-74
2022/11/01 09:43:25;;;;;;;22.05;13.80;;;12.10;99.90;;;;;;5114444;28;20063;-75
2022/11/01 09:45:54;;;;;;;25.25;14.45;;;12.10;99.90;;;;;;5114526;28;20031;-73
2022/11/01 09:48:20;;;;;;;20.45;13.13;;;12.10;99.90;;;;;;5114402;28;20028;-74
2022/11/01 09:50:46;;;;;;;25.25;13.35;;;12.10;99.90;;;;;;5114797;28;20376;-74
2022/11/01 09:53:19;;;;;;;20.67;13.07;;;12.10;99.90;;;;;;5114714;28;20104;-73
2022/11/01 09:56:00;;;;;;;25.52;14.18;;;12.10;99.90;;;;;;5115231;28;20026;-73
2022/11/01 09:58:33;;;;;;;21.90;13.13;;;12.10;99.90;;;;;;5114089;28;20062;-73
2022/11/01 10:01:25;;;;;;;22.48;13.00;;;12.20;99.90;;;;;;5114569;28;20036;-73
2022/11/01 10:04:18;;;;;;;20.90;12.77;;;12.10;99.90;;;;;;5114242;28;20372;-73
2022/11/01 10:07:06;;;;;;;22.00;12.07;;;12.20;99.90;;;;;;5113952;28;20106;-73
2022/11/01 10:09:56;;;;;;;17.95;12.70;;;12.10;99.90;;;;;;5113568;28;20020;-73
2022/11/01 10:12:37;;;;;;;20.35;12.40;;;12.20;99.90;;;;;;5113928;28;20023;-73
2022/11/01 10:15:02;;;;;;;20.73;13.13;;;12.20;99.90;;;;;;5114542;28;20028;-74
2022/11/01 10:17:46;;;;;;;22.75;13.48;;;12.20;99.90;;;;;;5112027;28;20027;-74
2022/11/01 10:20:13;;;;;;;19.70;13.00;;;12.20;99.90;;;;;;5114215;28;20102;-75
2022/11/01 10:22:43;;;;;;;20.60;12.30;;;12.10;99.90;;;;;;5113678;28;20038;-75
2022/11/01 10:25:42;;;;;;;20.13;13.13;;;12.10;99.90;;;;;;5114037;28;20028;-74
2022/11/01 10:28:18;;;;;;;19.02;12.27;;;12.20;99.90;;;;;;5080088;28;20097;-73
2022/11/01 10:30:53;;;;;;;20.20;12.10;;;12.20;99.90;;;;;;5113615;28;20023;-73
2022/11/01 10:33:38;;;;;;;22.55;13.23;;;12.20;99.90;;;;;;5113839;28;20044;-73
2022/11/01 10:36:18;;;;;;;21.80;12.55;;;12.20;99.90;;;;;;5113991;28;20019;-74
2022/11/01 10:38:53;;;;;;;19.25;12.77;;;12.30;99.90;;;;;;5113180;28;20482;-73
2022/11/01 10:41:51;;;;;;;25.77;13.23;;;12.30;99.90;;;;;;5113951;28;20036;-73
2022/11/01 10:44:40;;;;;;;19.52;12.13;;;12.30;99.90;;;;;;5113489;28;20460;-73
2022/11/01 10:47:11;;;;;;;19.88;12.65;;;12.40;99.90;;;;;;5113820;28;20028;-73
2022/11/01 10:49:42;;;;;;;19.27;12.85;;;12.40;99.90;;;;;;5112971;28;20031;-73
2022/11/01 10:52:13;;;;;;;20.77;12.85;;;12.40;99.90;;;;;;5113611;28;20066;-73
2022/11/01 10:54:42;;;;;;;19.33;12.25;;;12.40;99.90;;;;;;5112846;28;20484;-73
2022/11/01 10:57:15;;;;;;;18.67;12.48;;;12.40;99.90;;;;;;5112121;28;20024;-75
2022/11/01 10:59:45;;;;;;;20.73;12.35;;;12.50;99.90;;;;;;5111462;28;20110;-74
2022/11/01 11:02:33;;;;;;;17.13;12.43;;;12.50;99.90;;;;;;5113085;28;20492;-73
2022/11/01 11:04:58;;;;;;;21.50;13.20;;;12.60;99.90;;;;;;5102945;28;20059;-75
2022/11/01 11:07:28;;;;;;;16.92;12.45;;;12.60;99.90;;;;;;5113116;28;20078;-81
2022/11/01 11:09:54;;;;;;;21.83;13.38;;;12.70;99.90;;;;;;5112791;28;20341;-73
2022/11/01 11:12:22;;;;;;;20.95;12.88;;;12.70;99.90;;;;;;5113259;28;20023;-74
2022/11/01 11:14:55;;;;;;;19.67;13.48;;;12.80;99.90;;;;;;5112680;28;20047;-74
2022/11/01 11:17:37;;;;;;;18.83;13.02;;;12.80;99.90;;;;;;5113162;27;20031;-74
2022/11/01 11:20:06;;;;;;;21.70;13.30;;;12.90;99.90;;;;;;5113267;28;20028;-73
2022/11/01 11:22:38;;;;;;;21.75;12.65;;;12.90;99.90;;;;;;5113090;28;20372;-76
2022/11/01 11:25:07;;;;;;;20.00;13.23;;;12.90;99.90;;;;;;5113112;28;20031;-74
2022/11/01 11:27:33;;;;;;;21.63;13.43;;;13.00;99.90;;;;;;5112669;28;20035;-75
2022/11/01 11:30:04;;;;;;;23.20;13.50;;;13.20;99.90;;;;;;5116256;28;20020;-75
2022/11/01 11:32:37;;;;;;;18.63;12.05;;;13.20;99.90;;;;;;5116954;28;20428;-73
2022/11/01 11:35:15;;;;;;;21.25;12.15;;;13.30;99.90;;;;;;5117589;28;20051;-74
2022/11/01 11:37:50;;;;;;;24.40;13.43;;;13.50;99.90;;;;;;5116317;28;20036;-74
2022/11/01 11:40:23;;;;;;;22.67;12.52;;;13.50;99.90;;;;;;5117171;28;20038;-74
2022/11/01 11:42:50;;;;;;;20.95;13.27;;;13.60;99.90;;;;;;5116505;28;20046;-74
2022/11/01 11:45:24;;;;;;;26.90;17.08;;;13.60;99.90;;;;;;5116801;27;20468;-74
2022/11/01 11:47:50;;;;;;;23.63;15.70;;;13.60;99.90;;;;;;5116796;28;20032;-74
2022/11/01 11:50:18;;;;;;;22.33;16.20;;;13.70;99.90;;;;;;5117004;28;20107;-73
2022/11/01 11:52:48;;;;;;;27.60;17.77;;;13.70;99.90;;;;;;5115187;28;20460;-74
2022/11/01 11:55:44;;;;;;;23.50;16.15;;;13.80;99.90;;;;;;5116180;28;20422;-74
2022/11/01 11:58:25;;;;;;;24.67;17.27;;;13.90;99.90;;;;;;5116024;28;20415;-73
2022/11/01 12:00:52;;;;;;;;;;;14.00;99.90;;;;;;5117131;28;20034;-73
2022/11/01 12:03:18;;;;;;;17.55;13.55;;;14.10;99.90;;;;;;5116472;28;19934;-74
2022/11/01 12:05:56;;;;;;;20.75;14.85;;;14.30;99.90;;;;;;5116553;27;20468;-73
2022/11/01 12:08:55;;;;;;;23.17;15.43;;;14.40;99.90;;;;;;5116753;28;20081;-73
2022/11/01 12:11:23;;;;;;;16.40;11.60;;;14.60;99.90;;;;;;5112201;28;20035;-74
2022/11/01 12:14:02;;;;;;;12.02;8.88;;;14.60;99.90;;;;;;5115708;28;20027;-73
2022/11/01 12:16:29;;;;;;;14.65;9.18;;;14.70;99.90;;;;;;5095785;28;20433;-74
2022/11/01 12:19:00;;;;;;;15.38;8.98;;;14.60;99.90;;;;;;5095875;28;20071;-73
2022/11/01 12:21:38;;;;;;;16.80;9.88;;;14.70;99.90;;;;;;5096344;28;20081;-75
2022/11/01 12:24:25;;;;;;;18.58;10.05;;;14.80;99.90;;;;;;5100793;28;20031;-74
2022/11/01 12:27:00;;;;;;;14.63;11.00;;;14.80;99.90;;;;;;5115820;28;20459;-73
2022/11/01 12:29:43;;;;;;;20.08;13.38;;;14.90;99.90;;;;;;5116387;28;20110;-73
2022/11/01 12:32:19;;;;;;;16.73;11.93;;;15.00;99.90;;;;;;5116501;28;20024;-72
2022/11/01 12:34:49;;;;;;;18.63;12.18;;;15.00;99.90;;;;;;5115911;28;20055;-73
2022/11/01 12:37:31;;;;;;;15.93;10.93;;;15.00;99.90;;;;;;5115992;28;20027;-74
2022/11/01 12:40:10;;;;;;;13.50;10.70;;;15.00;99.90;;;;;;5115516;28;20035;-74
2022/11/01 12:43:08;;;;;;;15.63;11.40;;;15.00;99.90;;;;;;5115333;28;20028;-74
2022/11/01 12:46:03;;;;;;;18.98;10.95;;;15.00;99.90;;;;;;5115010;28;20067;-73
2022/11/01 12:48:37;;;;;;;12.63;9.27;;;15.00;99.90;;;;;;5113543;28;20039;-74
2022/11/01 12:51:25;;;;;;;11.23;8.63;;;15.00;99.90;;;;;;5114520;28;20020;-75
2022/11/01 12:53:58;;;;;;;15.75;8.85;;;15.00;99.90;;;;;;5113653;28;20031;-73